Main page
METAR-TAF:

METAR-TAF

Airports :

Camp Mabry

Austin, Texas, United States

latitude: 30-19N, longitude: 097-46W, elevation: 656 ft

Current weather observation

The report was made 11 minutes ago, at 19:39 UTC
Wind 5 mph from the North/Northeast
Temperature 61°F
Humidity 82%
Pressure 30.06 in. Hg
Visibility: 1.75 miles
Overcast at a height of 700 ft
rain, mist

METAR: KATT 281939Z AUTO 02004KT 1 3/4SM RA BR OVC007 16/13 A3006 RMK AO2 CIG 004V009 P0003 T01560133

Time: 13:50 (19:50 UTC)


TAF: missing

Weather observations and forecasts of more than 4000 airports (METAR and TAF reports).

The available stations are represented by yellow and red dots on the map.

Hover mouse over dot to see the name of the station.

Then click to see weather observations and forecasts.

To change the map : click on the green buttons with a black cross to zoom in, on the green button with a dash to zoom out, or on the green arrows for adjacent maps.


METAR-TAF: